createdAt,value
2023-01-19T00:00:21.617Z,9.13
2023-01-19T00:05:23.212Z,9.93
2023-01-19T00:10:24.889Z,10.35
2023-01-19T00:15:26.468Z,9.63
2023-01-19T00:20:28.064Z,9.00
2023-01-19T00:25:29.762Z,8.88
2023-01-19T00:30:31.446Z,8.73
2023-01-19T00:35:33.911Z,8.85
2023-01-19T00:40:35.592Z,9.35
2023-01-19T00:45:37.225Z,9.10
2023-01-19T00:50:38.792Z,11.05
2023-01-19T00:55:40.364Z,9.70
2023-01-19T01:00:41.973Z,9.00
2023-01-19T01:05:43.643Z,8.85
2023-01-19T01:10:45.221Z,8.85
2023-01-19T01:15:50.065Z,8.93
2023-01-19T01:20:51.993Z,8.50
2023-01-19T01:25:54.029Z,8.32
2023-01-19T01:30:56.547Z,8.55
2023-01-19T01:35:58.161Z,8.50
2023-01-19T01:40:59.765Z,8.63
2023-01-19T01:46:01.406Z,8.07
2023-01-19T01:51:24.181Z,8.77
2023-01-19T01:56:32.653Z,8.32
2023-01-19T02:01:53.201Z,8.55
2023-01-19T02:07:13.486Z,8.70
2023-01-19T02:12:33.630Z,8.32
2023-01-19T02:17:35.222Z,8.82
2023-01-19T02:22:45.871Z,8.10
2023-01-19T02:27:48.251Z,8.30
2023-01-19T02:32:50.087Z,8.07
2023-01-19T02:37:53.411Z,8.65
2023-01-19T02:43:00.894Z,8.77
2023-01-19T02:48:04.690Z,8.27
2023-01-19T02:53:29.184Z,8.20
2023-01-19T02:58:53.072Z,8.68
2023-01-19T03:04:01.048Z,8.82
2023-01-19T03:09:11.277Z,7.75
2023-01-19T03:14:18.534Z,8.40
2023-01-19T03:19:31.327Z,8.15
2023-01-19T03:24:37.129Z,8.05
2023-01-19T03:29:46.589Z,8.25
2023-01-19T03:34:50.307Z,8.18
2023-01-19T03:39:52.153Z,8.50
2023-01-19T03:44:56.626Z,8.35
2023-01-19T03:49:58.584Z,7.90
2023-01-19T03:55:01.573Z,7.88
2023-01-19T04:00:04.136Z,9.13
2023-01-19T04:05:06.139Z,8.18
2023-01-19T04:10:12.634Z,8.50
2023-01-19T04:15:15.247Z,8.07
2023-01-19T04:20:17.198Z,8.48
2023-01-19T04:25:18.814Z,7.82
2023-01-19T04:30:20.579Z,8.07
2023-01-19T04:35:22.543Z,8.02
2023-01-19T04:40:24.614Z,8.43
2023-01-19T04:45:26.253Z,7.93
2023-01-19T04:50:27.852Z,7.80
2023-01-19T04:55:29.572Z,8.02
2023-01-19T05:00:31.691Z,7.70
2023-01-19T05:05:36.365Z,8.70
2023-01-19T05:10:38.107Z,7.45
2023-01-19T05:15:39.713Z,10.75
2023-01-19T05:20:41.325Z,23.25
2023-01-19T05:25:44.581Z,7.97
2023-01-19T05:30:46.221Z,7.70
2023-01-19T05:35:51.910Z,8.10
2023-01-19T05:40:59.409Z,8.90
2023-01-19T05:46:01.112Z,7.85
2023-01-19T05:51:02.789Z,8.00
2023-01-19T05:56:08.733Z,7.47
2023-01-19T06:01:10.510Z,7.35
2023-01-19T06:06:13.527Z,8.00
2023-01-19T06:11:15.403Z,7.93
2023-01-19T06:16:16.988Z,7.97
2023-01-19T06:21:18.615Z,10.13
2023-01-19T06:26:20.229Z,9.32
2023-01-19T06:31:22.374Z,7.88
2023-01-19T06:36:24.109Z,8.20
2023-01-19T06:41:26.651Z,8.68
2023-01-19T06:46:28.698Z,7.82
2023-01-19T06:51:30.660Z,8.20
2023-01-19T06:56:32.264Z,9.10
2023-01-19T07:01:34.014Z,8.98
2023-01-19T07:06:35.632Z,8.93
2023-01-19T07:11:37.227Z,8.88
2023-01-19T07:16:38.967Z,8.98
2023-01-19T07:21:40.592Z,9.02
2023-01-19T07:26:42.424Z,8.18
2023-01-19T07:31:44.164Z,8.23
2023-01-19T07:36:45.864Z,9.82
2023-01-19T07:41:50.603Z,8.85
2023-01-19T07:46:52.266Z,8.85
2023-01-19T07:51:56.364Z,8.02
2023-01-19T07:56:58.056Z,8.40
2023-01-19T08:01:59.983Z,9.25
2023-01-19T08:07:02.149Z,7.57
2023-01-19T08:12:04.099Z,7.75
2023-01-19T08:17:05.725Z,7.78
2023-01-19T08:22:07.403Z,6.20
2023-01-19T08:27:10.036Z,6.63
2023-01-19T08:32:11.819Z,6.97
2023-01-19T08:37:13.457Z,8.02
2023-01-19T08:42:15.442Z,8.23
2023-01-19T08:47:17.479Z,8.55
2023-01-19T08:52:19.159Z,8.73
2023-01-19T08:57:20.741Z,7.72
2023-01-19T09:02:22.476Z,7.95
2023-01-19T09:07:24.150Z,7.53
2023-01-19T09:12:25.728Z,7.55
2023-01-19T09:17:27.371Z,7.18
2023-01-19T09:22:28.944Z,6.80
2023-01-19T09:27:30.858Z,6.82
2023-01-19T09:32:32.580Z,6.80
2023-01-19T09:37:34.241Z,6.60
2023-01-19T09:42:43.868Z,6.50
2023-01-19T09:47:48.669Z,6.68
2023-01-19T09:53:01.445Z,6.93
2023-01-19T09:58:09.459Z,7.47
2023-01-19T10:03:16.426Z,8.95
2023-01-19T10:08:39.351Z,9.07
2023-01-19T10:13:54.361Z,10.48
2023-01-19T10:19:02.080Z,8.00
2023-01-19T10:24:18.383Z,7.97
2023-01-19T10:29:26.570Z,7.93
2023-01-19T10:34:28.169Z,8.15
2023-01-19T10:39:29.960Z,8.02
2023-01-19T10:44:37.289Z,8.75
2023-01-19T10:49:44.640Z,7.82
2023-01-19T10:54:48.493Z,8.45
2023-01-19T10:59:51.560Z,7.07
2023-01-19T11:04:58.855Z,7.32
2023-01-19T11:10:15.691Z,6.93
2023-01-19T11:15:41.108Z,6.50
2023-01-19T11:20:52.664Z,5.70
2023-01-19T11:25:58.134Z,5.55
2023-01-19T11:30:59.698Z,5.50
2023-01-19T11:36:15.461Z,4.90
2023-01-19T11:41:18.890Z,5.65
2023-01-19T11:46:21.486Z,6.05
2023-01-19T11:51:25.271Z,6.00
2023-01-19T11:56:29.225Z,6.40
2023-01-19T12:01:34.457Z,6.20
2023-01-19T12:06:41.689Z,6.40
2023-01-19T12:12:01.685Z,5.97
2023-01-19T12:17:06.066Z,6.57
2023-01-19T12:22:14.026Z,6.18
2023-01-19T12:27:38.575Z,6.50
2023-01-19T12:32:40.176Z,6.80
2023-01-19T12:37:43.326Z,6.35
2023-01-19T12:42:57.005Z,6.22
2023-01-19T12:47:59.414Z,6.72
2023-01-19T12:53:03.034Z,6.60
2023-01-19T12:58:17.816Z,6.63
2023-01-19T13:03:44.076Z,7.10
2023-01-19T13:08:59.940Z,7.55
2023-01-19T13:14:01.482Z,7.13
2023-01-19T13:19:06.265Z,6.97
2023-01-19T13:24:10.638Z,7.18
2023-01-19T13:29:33.866Z,8.30
2023-01-19T13:34:44.090Z,7.85
2023-01-19T13:39:50.083Z,9.77
2023-01-19T13:44:55.276Z,8.82
2023-01-19T13:49:58.293Z,9.43
2023-01-19T13:55:03.513Z,9.70
2023-01-19T14:00:15.364Z,7.82
2023-01-19T14:10:24.833Z,9.55
2023-01-19T14:15:27.654Z,7.53
2023-01-19T14:20:30.669Z,7.22
2023-01-19T14:25:38.813Z,7.32
2023-01-19T14:30:40.506Z,7.75
2023-01-19T14:35:43.611Z,5.90
2023-01-19T14:40:45.418Z,5.70
2023-01-19T14:45:47.619Z,5.68
2023-01-19T14:51:02.838Z,5.00
2023-01-19T14:56:06.813Z,5.70
2023-01-19T15:01:09.341Z,5.70
2023-01-19T15:06:14.900Z,5.47
2023-01-19T15:11:24.654Z,4.75
2023-01-19T15:16:28.652Z,4.82
2023-01-19T15:21:30.293Z,12.70
2023-01-19T15:26:31.919Z,5.47
2023-01-19T15:31:33.524Z,4.97
2023-01-19T15:36:35.146Z,4.70
2023-01-19T15:41:39.588Z,4.63
2023-01-19T15:46:41.285Z,4.68
2023-01-19T15:51:42.955Z,4.85
2023-01-19T15:56:44.686Z,4.47
2023-01-19T16:01:46.601Z,4.30
2023-01-19T16:06:50.077Z,4.93
2023-01-19T16:11:56.613Z,4.65
2023-01-19T16:17:00.064Z,4.60
2023-01-19T16:22:01.959Z,4.35
2023-01-19T16:27:04.222Z,3.92
2023-01-19T16:32:06.385Z,11.90
2023-01-19T16:37:08.333Z,5.45
2023-01-19T16:42:10.012Z,6.15
2023-01-19T16:47:11.664Z,5.03
2023-01-19T16:52:13.272Z,4.40
2023-01-19T16:57:15.075Z,4.55
2023-01-19T17:02:16.836Z,6.35
2023-01-19T17:07:19.394Z,4.75
2023-01-19T17:12:21.064Z,4.47
2023-01-19T17:17:22.663Z,4.78
2023-01-19T17:22:24.268Z,5.05
2023-01-19T17:27:25.931Z,5.65
2023-01-19T17:32:27.512Z,5.00
2023-01-19T17:37:29.103Z,5.90
2023-01-19T17:42:30.717Z,5.55
2023-01-19T17:47:32.315Z,5.05
2023-01-19T17:52:33.980Z,5.30
2023-01-19T17:57:36.139Z,4.97
2023-01-19T18:02:37.783Z,5.97
2023-01-19T18:07:40.250Z,6.53
2023-01-19T18:12:42.299Z,6.00
2023-01-19T18:17:44.068Z,6.22
2023-01-19T18:22:45.698Z,13.85
2023-01-19T18:27:47.370Z,7.43
2023-01-19T18:32:51.568Z,10.30
2023-01-19T18:37:54.952Z,7.85
2023-01-19T18:42:56.597Z,9.07
2023-01-19T18:47:58.213Z,8.25
2023-01-19T18:52:59.919Z,8.95
2023-01-19T18:58:01.823Z,8.77
2023-01-19T19:03:03.504Z,9.77
2023-01-19T19:08:05.931Z,8.23
2023-01-19T19:13:09.060Z,7.75
2023-01-19T19:18:13.236Z,8.55
2023-01-19T19:23:15.164Z,7.82
2023-01-19T19:28:18.338Z,7.30
2023-01-19T19:33:19.914Z,7.80
2023-01-19T19:38:21.504Z,8.45
2023-01-19T19:43:26.873Z,7.95
2023-01-19T19:48:28.577Z,8.63
2023-01-19T19:53:30.234Z,10.30
2023-01-19T19:58:31.937Z,11.35
2023-01-19T20:03:33.544Z,7.80
2023-01-19T20:08:36.129Z,8.45
2023-01-19T20:13:39.065Z,8.80
2023-01-19T20:18:42.422Z,9.30
2023-01-19T20:23:45.049Z,9.43
2023-01-19T20:28:47.627Z,10.05
2023-01-19T20:33:50.969Z,9.90
2023-01-19T20:38:53.926Z,9.25
2023-01-19T20:43:55.713Z,8.85
2023-01-19T20:48:57.339Z,9.23
2023-01-19T20:53:59.412Z,10.00
2023-01-19T20:59:02.118Z,9.63
2023-01-19T21:04:03.959Z,7.90
2023-01-19T21:09:05.941Z,8.50
2023-01-19T21:14:07.827Z,8.63
2023-01-19T21:19:09.444Z,9.63
2023-01-19T21:24:11.156Z,11.88
2023-01-19T21:29:14.039Z,11.13
2023-01-19T21:34:15.669Z,11.35
2023-01-19T21:39:17.528Z,10.90
2023-01-19T21:44:19.173Z,10.50
2023-01-19T21:49:21.134Z,11.25
2023-01-19T21:54:22.754Z,10.70
2023-01-19T21:59:24.399Z,13.23
2023-01-19T22:04:26.005Z,11.35
2023-01-19T22:09:27.622Z,11.93
2023-01-19T22:14:29.553Z,12.05
2023-01-19T22:19:31.144Z,11.13
2023-01-19T22:24:32.760Z,11.27
2023-01-19T22:29:34.635Z,11.65
2023-01-19T22:34:36.233Z,11.77
2023-01-19T22:39:37.947Z,12.48
2023-01-19T22:44:39.596Z,12.48
2023-01-19T22:49:41.195Z,11.98
2023-01-19T22:54:42.854Z,11.98
2023-01-19T22:59:45.426Z,12.75
2023-01-19T23:04:47.077Z,11.85
2023-01-19T23:09:48.673Z,11.93
2023-01-19T23:14:50.234Z,11.85
2023-01-19T23:19:51.888Z,11.18
2023-01-19T23:24:53.455Z,12.00
2023-01-19T23:29:55.051Z,11.77
2023-01-19T23:34:56.726Z,11.02
2023-01-19T23:39:58.348Z,10.77
2023-01-19T23:44:59.960Z,10.85
2023-01-19T23:50:02.935Z,10.82
2023-01-19T23:55:05.356Z,11.75
